sensor_id;sensor_type;location;lat;lon;timestamp;pressure;altitude;pressure_sealevel;temperature;humidity
11314;BME280;5712;48.858;9.206;2023-04-27T00:00:30;98249.41;;;7.70;96.40
11314;BME280;5712;48.858;9.206;2023-04-27T00:02:57;98249.41;;;7.70;97.61
11314;BME280;5712;48.858;9.206;2023-04-27T00:05:24;98257.50;;;7.67;97.46
11314;BME280;5712;48.858;9.206;2023-04-27T00:07:50;98246.38;;;7.62;99.14
11314;BME280;5712;48.858;9.206;2023-04-27T00:10:17;98245.63;;;7.60;99.76
11314;BME280;5712;48.858;9.206;2023-04-27T00:12:43;98243.94;;;7.59;100.00
11314;BME280;5712;48.858;9.206;2023-04-27T00:15:10;98243.75;;;7.62;99.41
11314;BME280;5712;48.858;9.206;2023-04-27T00:17:37;98245.28;;;7.66;98.76
11314;BME280;5712;48.858;9.206;2023-04-27T00:20:10;98233.75;;;7.68;98.39
11314;BME280;5712;48.858;9.206;2023-04-27T00:22:37;98238.91;;;7.70;97.91
11314;BME280;5712;48.858;9.206;2023-04-27T00:25:04;98234.56;;;7.69;97.35
11314;BME280;5712;48.858;9.206;2023-04-27T00:27:31;98224.06;;;7.69;97.33
11314;BME280;5712;48.858;9.206;2023-04-27T00:29:57;98222.38;;;7.68;97.06
11314;BME280;5712;48.858;9.206;2023-04-27T00:32:24;98222.38;;;7.68;96.51
11314;BME280;5712;48.858;9.206;2023-04-27T00:34:50;98218.03;;;7.67;96.58
11314;BME280;5712;48.858;9.206;2023-04-27T00:37:18;98219.81;;;7.66;96.94
11314;BME280;5712;48.858;9.206;2023-04-27T00:39:44;98234.75;;;7.66;98.09
11314;BME280;5712;48.858;9.206;2023-04-27T00:42:12;98227.03;;;7.63;98.63
11314;BME280;5712;48.858;9.206;2023-04-27T00:44:43;98231.63;;;7.59;100.00
11314;BME280;5712;48.858;9.206;2023-04-27T00:47:10;98230.84;;;7.57;100.00
11314;BME280;5712;48.858;9.206;2023-04-27T00:49:37;98222.09;;;7.57;100.00
11314;BME280;5712;48.858;9.206;2023-04-27T00:52:04;98227.56;;;7.54;100.00
11314;BME280;5712;48.858;9.206;2023-04-27T00:54:33;98218.06;;;7.51;100.00
11314;BME280;5712;48.858;9.206;2023-04-27T00:56:59;98225.25;;;7.48;100.00
11314;BME280;5712;48.858;9.206;2023-04-27T00:59:26;98219.34;;;7.44;100.00
11314;BME280;5712;48.858;9.206;2023-04-27T01:01:55;98224.94;;;7.38;100.00
11314;BME280;5712;48.858;9.206;2023-04-27T01:04:21;98227.56;;;7.38;100.00
11314;BME280;5712;48.858;9.206;2023-04-27T01:06:48;98228.56;;;7.36;100.00
11314;BME280;5712;48.858;9.206;2023-04-27T01:09:14;98233.06;;;7.34;100.00
11314;BME280;5712;48.858;9.206;2023-04-27T01:11:45;98221.84;;;7.30;100.00
11314;BME280;5712;48.858;9.206;2023-04-27T01:14:11;98221.16;;;7.27;100.00
11314;BME280;5712;48.858;9.206;2023-04-27T01:16:38;98228.31;;;7.25;100.00
11314;BME280;5712;48.858;9.206;2023-04-27T01:19:06;98228.47;;;7.22;100.00
11314;BME280;5712;48.858;9.206;2023-04-27T01:21:32;98228.63;;;7.19;100.00
11314;BME280;5712;48.858;9.206;2023-04-27T01:24:00;98227.78;;;7.18;100.00
11314;BME280;5712;48.858;9.206;2023-04-27T01:26:29;98226.06;;;7.18;100.00
11314;BME280;5712;48.858;9.206;2023-04-27T01:28:55;98220.16;;;7.14;100.00
11314;BME280;5712;48.858;9.206;2023-04-27T01:31:22;98225.41;;;7.14;100.00
11314;BME280;5712;48.858;9.206;2023-04-27T01:33:48;98222.16;;;7.09;100.00
11314;BME280;5712;48.858;9.206;2023-04-27T01:36:15;98222.50;;;7.03;100.00
11314;BME280;5712;48.858;9.206;2023-04-27T01:38:41;98222.50;;;7.03;100.00
11314;BME280;5712;48.858;9.206;2023-04-27T01:41:09;98220.81;;;7.02;100.00
11314;BME280;5712;48.858;9.206;2023-04-27T01:43:36;98220.66;;;7.05;100.00
11314;BME280;5712;48.858;9.206;2023-04-27T01:46:06;98223.53;;;7.01;100.00
11314;BME280;5712;48.858;9.206;2023-04-27T01:48:33;98227.25;;;6.97;100.00
11314;BME280;5712;48.858;9.206;2023-04-27T01:51:00;98230.81;;;6.96;100.00
11314;BME280;5712;48.858;9.206;2023-04-27T01:53:27;98233.59;;;6.93;100.00
11314;BME280;5712;48.858;9.206;2023-04-27T01:55:54;98238.00;;;6.92;100.00
11314;BME280;5712;48.858;9.206;2023-04-27T01:58:25;98229.34;;;6.90;100.00
11314;BME280;5712;48.858;9.206;2023-04-27T02:00:51;98240.78;;;6.89;100.00
11314;BME280;5712;48.858;9.206;2023-04-27T02:03:18;98239.09;;;6.88;100.00
11314;BME280;5712;48.858;9.206;2023-04-27T02:05:45;98239.22;;;6.85;100.00
11314;BME280;5712;48.858;9.206;2023-04-27T02:08:12;98246.22;;;6.86;100.00
11314;BME280;5712;48.858;9.206;2023-04-27T02:10:38;98246.34;;;6.83;100.00
11314;BME280;5712;48.858;9.206;2023-04-27T02:13:05;98244.66;;;6.82;100.00
11314;BME280;5712;48.858;9.206;2023-04-27T02:15:33;98244.66;;;6.82;100.00
11314;BME280;5712;48.858;9.206;2023-04-27T02:18:00;98239.22;;;6.85;100.00
11314;BME280;5712;48.858;9.206;2023-04-27T02:20:28;98241.88;;;6.85;100.00
11314;BME280;5712;48.858;9.206;2023-04-27T02:22:55;98242.91;;;6.83;100.00
11314;BME280;5712;48.858;9.206;2023-04-27T02:25:21;98250.69;;;6.84;100.00
11314;BME280;5712;48.858;9.206;2023-04-27T02:27:48;98255.09;;;6.84;100.00
11314;BME280;5712;48.858;9.206;2023-04-27T02:30:14;98256.72;;;6.86;100.00
11314;BME280;5712;48.858;9.206;2023-04-27T02:32:42;98253.91;;;6.89;100.00
11314;BME280;5712;48.858;9.206;2023-04-27T02:35:09;98254.69;;;6.91;100.00
11314;BME280;5712;48.858;9.206;2023-04-27T02:37:36;98252.22;;;6.88;100.00
11314;BME280;5712;48.858;9.206;2023-04-27T02:40:03;98247.72;;;6.90;100.00
11314;BME280;5712;48.858;9.206;2023-04-27T02:42:31;98251.03;;;6.94;100.00
11314;BME280;5712;48.858;9.206;2023-04-27T02:44:57;98248.41;;;6.94;100.00
11314;BME280;5712;48.858;9.206;2023-04-27T02:47:24;98258.84;;;6.95;100.00
11314;BME280;5712;48.858;9.206;2023-04-27T02:49:52;98259.78;;;6.94;100.00
11314;BME280;5712;48.858;9.206;2023-04-27T02:52:18;98254.28;;;6.99;100.00
11314;BME280;5712;48.858;9.206;2023-04-27T02:54:45;98257.75;;;6.99;100.00
11314;BME280;5712;48.858;9.206;2023-04-27T02:57:11;98262.16;;;6.99;100.00
11314;BME280;5712;48.858;9.206;2023-04-27T02:59:38;98265.66;;;6.99;100.00
11314;BME280;5712;48.858;9.206;2023-04-27T03:02:04;98262.00;;;7.02;100.00
11314;BME280;5712;48.858;9.206;2023-04-27T03:04:31;98257.59;;;7.02;100.00
11314;BME280;5712;48.858;9.206;2023-04-27T03:06:59;98266.41;;;7.01;100.00
11314;BME280;5712;48.858;9.206;2023-04-27T03:09:26;98259.38;;;7.02;100.00
11314;BME280;5712;48.858;9.206;2023-04-27T03:11:52;98261.16;;;7.01;100.00
11314;BME280;5712;48.858;9.206;2023-04-27T03:14:19;98269.97;;;7.00;100.00
11314;BME280;5712;48.858;9.206;2023-04-27T03:16:45;98264.78;;;6.99;100.00
11314;BME280;5712;48.858;9.206;2023-04-27T03:19:12;98261.34;;;6.98;100.00
11314;BME280;5712;48.858;9.206;2023-04-27T03:21:38;98267.59;;;6.96;100.00
11314;BME280;5712;48.858;9.206;2023-04-27T03:24:06;98267.41;;;6.99;100.00
11314;BME280;5712;48.858;9.206;2023-04-27T03:26:33;98268.28;;;6.99;100.00
11314;BME280;5712;48.858;9.206;2023-04-27T03:28:59;98269.22;;;6.98;100.00
11314;BME280;5712;48.858;9.206;2023-04-27T03:31:26;98268.41;;;6.96;100.00
11314;BME280;5712;48.858;9.206;2023-04-27T03:33:52;98257.09;;;6.96;100.00
11314;BME280;5712;48.858;9.206;2023-04-27T03:36:19;98259.78;;;6.94;100.00
11314;BME280;5712;48.858;9.206;2023-04-27T03:38:45;98264.09;;;6.95;100.00
11314;BME280;5712;48.858;9.206;2023-04-27T03:41:13;98265.91;;;6.95;100.00
11314;BME280;5712;48.858;9.206;2023-04-27T03:43:39;98268.66;;;6.92;100.00
11314;BME280;5712;48.858;9.206;2023-04-27T03:46:06;98259.09;;;6.91;100.00
11314;BME280;5712;48.858;9.206;2023-04-27T03:48:33;98261.81;;;6.89;100.00
11314;BME280;5712;48.858;9.206;2023-04-27T03:51:00;98268.00;;;6.88;100.00
11314;BME280;5712;48.858;9.206;2023-04-27T03:53:27;98268.91;;;6.87;100.00
11314;BME280;5712;48.858;9.206;2023-04-27T03:55:54;98274.19;;;6.87;100.00
11314;BME280;5712;48.858;9.206;2023-04-27T03:58:22;98276.72;;;6.89;100.00
11314;BME280;5712;48.858;9.206;2023-04-27T04:00:48;98261.97;;;6.86;100.00
11314;BME280;5712;48.858;9.206;2023-04-27T04:03:14;98269.06;;;6.84;100.00
11314;BME280;5712;48.858;9.206;2023-04-27T04:05:41;98264.50;;;6.88;100.00
11314;BME280;5712;48.858;9.206;2023-04-27T04:08:07;98265.19;;;6.91;100.00
11314;BME280;5712;48.858;9.206;2023-04-27T04:10:34;98269.59;;;6.91;100.00
11314;BME280;5712;48.858;9.206;2023-04-27T04:13:01;98272.31;;;6.89;100.00
11314;BME280;5712;48.858;9.206;2023-04-27T04:15:28;98273.06;;;6.91;100.00
11314;BME280;5712;48.858;9.206;2023-04-27T04:17:55;98272.38;;;6.88;100.00
11314;BME280;5712;48.858;9.206;2023-04-27T04:20:21;98273.16;;;6.90;100.00
11314;BME280;5712;48.858;9.206;2023-04-27T04:22:48;98270.63;;;6.88;100.00
11314;BME280;5712;48.858;9.206;2023-04-27T04:25:14;98276.72;;;6.89;100.00
11314;BME280;5712;48.858;9.206;2023-04-27T04:27:41;98284.50;;;6.90;100.00
11314;BME280;5712;48.858;9.206;2023-04-27T04:30:09;98274.00;;;6.90;100.00
11314;BME280;5712;48.858;9.206;2023-04-27T04:32:37;98275.88;;;6.88;100.00
11314;BME280;5712;48.858;9.206;2023-04-27T04:35:04;98282.69;;;6.92;100.00
11314;BME280;5712;48.858;9.206;2023-04-27T04:37:32;98279.09;;;6.93;100.00
11314;BME280;5712;48.858;9.206;2023-04-27T04:39:59;98280.94;;;6.91;100.00
11314;BME280;5712;48.858;9.206;2023-04-27T04:42:26;98281.75;;;6.93;100.00
11314;BME280;5712;48.858;9.206;2023-04-27T04:44:52;98279.78;;;6.97;100.00
11314;BME280;5712;48.858;9.206;2023-04-27T04:47:19;98291.00;;;7.00;100.00
11314;BME280;5712;48.858;9.206;2023-04-27T04:49:47;98277.53;;;7.06;100.00
11314;BME280;5712;48.858;9.206;2023-04-27T04:52:13;98272.19;;;7.08;100.00
11314;BME280;5712;48.858;9.206;2023-04-27T04:54:40;98282.53;;;7.11;100.00
11314;BME280;5712;48.858;9.206;2023-04-27T04:57:06;98285.78;;;7.16;100.00
11314;BME280;5712;48.858;9.206;2023-04-27T04:59:33;98285.69;;;7.17;100.00
11314;BME280;5712;48.858;9.206;2023-04-27T05:02:00;98288.34;;;7.17;100.00
11314;BME280;5712;48.858;9.206;2023-04-27T05:04:26;98287.31;;;7.20;100.00
11314;BME280;5712;48.858;9.206;2023-04-27T05:06:54;98290.72;;;7.22;100.00
11314;BME280;5712;48.858;9.206;2023-04-27T05:09:21;98285.38;;;7.23;100.00
11314;BME280;5712;48.858;9.206;2023-04-27T05:11:47;98297.31;;;7.28;100.00
11314;BME280;5712;48.858;9.206;2023-04-27T05:14:14;98298.00;;;7.32;100.00
11314;BME280;5712;48.858;9.206;2023-04-27T05:16:40;98293.44;;;7.35;100.00
11314;BME280;5712;48.858;9.206;2023-04-27T05:19:07;98286.00;;;7.43;100.00
11314;BME280;5712;48.858;9.206;2023-04-27T05:21:33;98281.56;;;7.44;100.00
11314;BME280;5712;48.858;9.206;2023-04-27T05:24:01;98283.94;;;7.48;100.00
11314;BME280;5712;48.858;9.206;2023-04-27T05:26:28;98288.78;;;7.56;100.00
11314;BME280;5712;48.858;9.206;2023-04-27T05:28:54;98284.28;;;7.58;100.00
11314;BME280;5712;48.858;9.206;2023-04-27T05:31:21;98280.75;;;7.59;100.00
11314;BME280;5712;48.858;9.206;2023-04-27T05:33:47;98288.19;;;7.66;100.00
11314;BME280;5712;48.858;9.206;2023-04-27T05:36:14;98299.06;;;7.76;100.00
11314;BME280;5712;48.858;9.206;2023-04-27T05:38:40;98298.06;;;7.78;100.00
11314;BME280;5712;48.858;9.206;2023-04-27T05:41:09;98290.75;;;7.83;100.00
11314;BME280;5712;48.858;9.206;2023-04-27T05:43:35;98296.69;;;7.87;100.00
11314;BME280;5712;48.858;9.206;2023-04-27T05:46:03;98297.28;;;7.92;100.00
11314;BME280;5712;48.858;9.206;2023-04-27T05:48:29;98297.53;;;8.03;100.00
11314;BME280;5712;48.858;9.206;2023-04-27T05:50:59;98304.16;;;8.10;100.00
11314;BME280;5712;48.858;9.206;2023-04-27T05:53:27;98304.75;;;8.15;100.00
11314;BME280;5712;48.858;9.206;2023-04-27T05:55:53;98310.53;;;8.21;100.00
11314;BME280;5712;48.858;9.206;2023-04-27T05:58:22;98312.91;;;8.26;100.00
11314;BME280;5712;48.858;9.206;2023-04-27T06:00:48;98313.47;;;8.31;100.00
11314;BME280;5712;48.858;9.206;2023-04-27T06:03:15;98312.09;;;8.39;100.00
11314;BME280;5712;48.858;9.206;2023-04-27T06:05:41;98312.25;;;8.52;100.00
11314;BME280;5712;48.858;9.206;2023-04-27T06:08:08;98315.56;;;8.55;100.00
11314;BME280;5712;48.858;9.206;2023-04-27T06:10:35;98321.91;;;8.67;100.00
11314;BME280;5712;48.858;9.206;2023-04-27T06:13:01;98321.16;;;8.79;100.00
11314;BME280;5712;48.858;9.206;2023-04-27T06:15:29;98313.47;;;8.90;100.00
11314;BME280;5712;48.858;9.206;2023-04-27T06:17:55;98322.19;;;9.06;100.00
11314;BME280;5712;48.858;9.206;2023-04-27T06:20:22;98319.84;;;9.15;100.00
11314;BME280;5712;48.858;9.206;2023-04-27T06:22:48;98313.16;;;9.24;100.00
11314;BME280;5712;48.858;9.206;2023-04-27T06:25:15;98321.06;;;9.38;100.00
11314;BME280;5712;48.858;9.206;2023-04-27T06:27:41;98320.31;;;9.50;100.00
11314;BME280;5712;48.858;9.206;2023-04-27T06:30:09;98325.47;;;9.65;100.00
11314;BME280;5712;48.858;9.206;2023-04-27T06:32:37;98323.75;;;9.78;100.00
11314;BME280;5712;48.858;9.206;2023-04-27T06:35:04;98319.69;;;9.87;99.85
11314;BME280;5712;48.858;9.206;2023-04-27T06:37:31;98317.97;;;10.00;98.61
11314;BME280;5712;48.858;9.206;2023-04-27T06:39:57;98311.94;;;10.12;97.52
11314;BME280;5712;48.858;9.206;2023-04-27T06:42:24;98313.59;;;10.27;96.74
11314;BME280;5712;48.858;9.206;2023-04-27T06:44:52;98313.00;;;10.36;95.38
11314;BME280;5712;48.858;9.206;2023-04-27T06:47:19;98304.34;;;10.46;94.02
11314;BME280;5712;48.858;9.206;2023-04-27T06:49:47;98316.75;;;10.58;93.12
11314;BME280;5712;48.858;9.206;2023-04-27T06:52:14;98307.38;;;10.67;92.01
11314;BME280;5712;48.858;9.206;2023-04-27T06:54:40;98318.81;;;10.80;90.93
11314;BME280;5712;48.858;9.206;2023-04-27T06:57:07;98307.81;;;10.86;89.08
11314;BME280;5712;48.858;9.206;2023-04-27T06:59:34;98312.28;;;10.98;88.93
11314;BME280;5712;48.858;9.206;2023-04-27T07:02:00;98311.44;;;11.10;88.23
11314;BME280;5712;48.858;9.206;2023-04-27T07:04:27;98309.56;;;11.12;86.91
11314;BME280;5712;48.858;9.206;2023-04-27T07:06:55;98305.97;;;11.25;86.05
11314;BME280;5712;48.858;9.206;2023-04-27T07:09:22;98306.38;;;11.32;85.36
11314;BME280;5712;48.858;9.206;2023-04-27T07:11:49;98315.91;;;11.47;84.64
11314;BME280;5712;48.858;9.206;2023-04-27T07:14:15;98313.44;;;11.56;84.26
11314;BME280;5712;48.858;9.206;2023-04-27T07:16:42;98306.50;;;11.68;82.99
11314;BME280;5712;48.858;9.206;2023-04-27T07:19:09;98297.88;;;11.77;81.66
11314;BME280;5712;48.858;9.206;2023-04-27T07:21:35;98295.94;;;11.91;79.75
11314;BME280;5712;48.858;9.206;2023-04-27T07:24:03;98292.75;;;11.99;79.58
11314;BME280;5712;48.858;9.206;2023-04-27T07:26:30;98298.13;;;12.10;80.18
11314;BME280;5712;48.858;9.206;2023-04-27T07:28:57;98290.72;;;12.26;79.84
11314;BME280;5712;48.858;9.206;2023-04-27T07:31:23;98293.84;;;12.43;79.19
11314;BME280;5712;48.858;9.206;2023-04-27T07:33:50;98293.16;;;12.52;78.69
11314;BME280;5712;48.858;9.206;2023-04-27T07:36:17;98291.84;;;12.58;77.44
11314;BME280;5712;48.858;9.206;2023-04-27T07:38:43;98269.09;;;12.66;74.66
11314;BME280;5712;48.858;9.206;2023-04-27T07:41:11;98274.78;;;12.73;74.58
11314;BME280;5712;48.858;9.206;2023-04-27T07:43:38;98278.94;;;12.88;74.82
11314;BME280;5712;48.858;9.206;2023-04-27T07:46:06;98272.00;;;12.98;72.43
11314;BME280;5712;48.858;9.206;2023-04-27T07:48:32;98271.16;;;13.08;70.93
11314;BME280;5712;48.858;9.206;2023-04-27T07:50:59;98271.22;;;13.30;70.45
11314;BME280;5712;48.858;9.206;2023-04-27T07:53:25;98263.50;;;13.49;69.94
11314;BME280;5712;48.858;9.206;2023-04-27T07:55:52;98256.34;;;13.61;68.23
11314;BME280;5712;48.858;9.206;2023-04-27T07:58:20;98254.06;;;13.67;66.94
11314;BME280;5712;48.858;9.206;2023-04-27T08:00:46;98263.59;;;13.81;66.66
11314;BME280;5712;48.858;9.206;2023-04-27T08:03:13;98259.00;;;13.83;67.15
11314;BME280;5712;48.858;9.206;2023-04-27T08:05:39;98249.72;;;13.77;65.35
11314;BME280;5712;48.858;9.206;2023-04-27T08:08:06;98243.81;;;13.63;64.42
11314;BME280;5712;48.858;9.206;2023-04-27T08:10:32;98254.44;;;13.63;65.29
11314;BME280;5712;48.858;9.206;2023-04-27T08:12:59;98262.41;;;13.63;67.67
11314;BME280;5712;48.858;9.206;2023-04-27T08:15:27;98262.91;;;13.57;67.28
11314;BME280;5712;48.858;9.206;2023-04-27T08:17:53;98257.94;;;13.52;66.74
11314;BME280;5712;48.858;9.206;2023-04-27T08:20:20;98260.94;;;13.59;67.63
11314;BME280;5712;48.858;9.206;2023-04-27T08:22:49;98249.34;;;13.71;66.01
11314;BME280;5712;48.858;9.206;2023-04-27T08:25:16;98243.44;;;13.78;64.97
11314;BME280;5712;48.858;9.206;2023-04-27T08:27:42;98249.34;;;13.93;65.27
11314;BME280;5712;48.858;9.206;2023-04-27T08:30:10;98230.00;;;13.80;63.10
11314;BME280;5712;48.858;9.206;2023-04-27T08:32:38;98191.69;;;13.62;57.58
11314;BME280;5712;48.858;9.206;2023-04-27T08:35:05;98213.63;;;13.64;60.32
11314;BME280;5712;48.858;9.206;2023-04-27T08:37:32;98219.91;;;13.74;61.50
11314;BME280;5712;48.858;9.206;2023-04-27T08:42:35;98217.03;;;14.08;61.17
11314;BME280;5712;48.858;9.206;2023-04-27T08:45:02;98212.53;;;14.31;61.35
11314;BME280;5712;48.858;9.206;2023-04-27T08:47:29;98217.31;;;14.37;60.24
11314;BME280;5712;48.858;9.206;2023-04-27T08:49:57;98212.41;;;14.53;60.49
11314;BME280;5712;48.858;9.206;2023-04-27T08:52:23;98171.56;;;14.54;55.64
11314;BME280;5712;48.858;9.206;2023-04-27T08:54:52;98152.94;;;14.54;54.20
11314;BME280;5712;48.858;9.206;2023-04-27T08:57:19;98166.75;;;14.48;54.69
11314;BME280;5712;48.858;9.206;2023-04-27T08:59:56;98154.75;;;14.53;52.92
11314;BME280;5712;48.858;9.206;2023-04-27T09:02:23;98144.91;;;14.44;52.24
11314;BME280;5712;48.858;9.206;2023-04-27T09:04:51;98156.28;;;14.35;53.33
11314;BME280;5712;48.858;9.206;2023-04-27T09:07:19;98164.16;;;14.37;53.55
11314;BME280;5712;48.858;9.206;2023-04-27T09:09:46;98193.47;;;14.67;56.81
11314;BME280;5712;48.858;9.206;2023-04-27T09:12:14;98195.28;;;14.87;56.86
11314;BME280;5712;48.858;9.206;2023-04-27T09:14:41;98185.56;;;14.97;55.12
11314;BME280;5712;48.858;9.206;2023-04-27T09:17:08;98143.94;;;14.96;51.21
11314;BME280;5712;48.858;9.206;2023-04-27T09:19:35;98158.19;;;14.95;51.92
11314;BME280;5712;48.858;9.206;2023-04-27T09:22:03;98174.09;;;15.06;52.48
11314;BME280;5712;48.858;9.206;2023-04-27T09:24:31;98140.19;;;15.08;49.79
11314;BME280;5712;48.858;9.206;2023-04-27T09:26:58;98141.38;;;15.15;50.13
11314;BME280;5712;48.858;9.206;2023-04-27T09:29:31;98171.69;;;15.23;52.09
11314;BME280;5712;48.858;9.206;2023-04-27T09:31:58;98201.94;;;15.52;54.83
11314;BME280;5712;48.858;9.206;2023-04-27T09:34:25;98202.69;;;15.64;54.33
11314;BME280;5712;48.858;9.206;2023-04-27T09:36:51;98191.91;;;15.75;53.41
11314;BME280;5712;48.858;9.206;2023-04-27T09:39:18;98167.25;;;15.82;51.79
11314;BME280;5712;48.858;9.206;2023-04-27T09:41:47;98161.47;;;15.77;51.12
11314;BME280;5712;48.858;9.206;2023-04-27T09:44:14;98141.25;;;15.65;49.42
11314;BME280;5712;48.858;9.206;2023-04-27T09:46:41;98134.22;;;15.55;48.47
11314;BME280;5712;48.858;9.206;2023-04-27T09:49:11;98125.81;;;15.50;47.88
11314;BME280;5712;48.858;9.206;2023-04-27T09:51:38;98146.81;;;15.43;49.72
11314;BME280;5712;48.858;9.206;2023-04-27T09:54:06;98137.06;;;15.23;49.11
11314;BME280;5712;48.858;9.206;2023-04-27T09:56:44;98132.66;;;15.13;49.24
11314;BME280;5712;48.858;9.206;2023-04-27T09:59:28;98149.06;;;15.18;50.46
11314;BME280;5712;48.858;9.206;2023-04-27T10:01:59;98136.97;;;15.34;50.19
11314;BME280;5712;48.858;9.206;2023-04-27T10:04:49;98163.81;;;15.52;52.20
11314;BME280;5712;48.858;9.206;2023-04-27T10:07:19;98149.66;;;15.61;50.77
11314;BME280;5712;48.858;9.206;2023-04-27T10:09:47;98161.19;;;15.71;51.36
11314;BME280;5712;48.858;9.206;2023-04-27T10:12:17;98119.97;;;15.75;47.47
11314;BME280;5712;48.858;9.206;2023-04-27T10:14:53;98104.53;;;15.69;46.75
11314;BME280;5712;48.858;9.206;2023-04-27T10:17:23;98136.25;;;15.72;49.13
11314;BME280;5712;48.858;9.206;2023-04-27T10:19:55;98144.66;;;15.77;49.86
11314;BME280;5712;48.858;9.206;2023-04-27T10:22:22;98195.59;;;15.93;54.48
11314;BME280;5712;48.858;9.206;2023-04-27T10:24:50;98216.13;;;16.11;55.57
11314;BME280;5712;48.858;9.206;2023-04-27T10:27:19;98122.81;;;16.20;48.23
11314;BME280;5712;48.858;9.206;2023-04-27T10:29:47;98131.38;;;16.14;48.21
11314;BME280;5712;48.858;9.206;2023-04-27T10:32:20;98142.03;;;16.14;48.90
11314;BME280;5712;48.858;9.206;2023-04-27T10:34:48;98133.47;;;16.20;48.28
11314;BME280;5712;48.858;9.206;2023-04-27T10:37:15;98096.28;;;16.09;45.65
11314;BME280;5712;48.858;9.206;2023-04-27T10:39:44;98111.03;;;16.04;46.57
11314;BME280;5712;48.858;9.206;2023-04-27T10:42:11;98117.47;;;16.20;47.59
11314;BME280;5712;48.858;9.206;2023-04-27T10:44:38;98139.91;;;16.27;48.74
11314;BME280;5712;48.858;9.206;2023-04-27T10:47:12;98129.38;;;16.35;47.77
11314;BME280;5712;48.858;9.206;2023-04-27T10:49:41;98168.72;;;16.52;50.96
11314;BME280;5712;48.858;9.206;2023-04-27T10:52:08;98180.88;;;16.83;52.98
11314;BME280;5712;48.858;9.206;2023-04-27T10:54:35;98158.06;;;17.08;51.44
11314;BME280;5712;48.858;9.206;2023-04-27T10:57:03;98169.81;;;17.24;51.77
11314;BME280;5712;48.858;9.206;2023-04-27T10:59:31;98197.34;;;17.34;53.95
11314;BME280;5712;48.858;9.206;2023-04-27T11:01:57;98161.34;;;17.38;51.06
11314;BME280;5712;48.858;9.206;2023-04-27T11:04:34;98143.63;;;17.37;49.51
11314;BME280;5712;48.858;9.206;2023-04-27T11:07:03;98181.03;;;17.37;52.48
11314;BME280;5712;48.858;9.206;2023-04-27T11:09:30;98086.13;;;17.06;44.88
11314;BME280;5712;48.858;9.206;2023-04-27T11:11:57;98091.53;;;16.87;44.97
11314;BME280;5712;48.858;9.206;2023-04-27T11:14:23;98096.88;;;16.87;46.28
11314;BME280;5712;48.858;9.206;2023-04-27T11:16:50;98082.84;;;16.85;44.45
11314;BME280;5712;48.858;9.206;2023-04-27T11:19:16;98078.81;;;16.72;45.04
11314;BME280;5712;48.858;9.206;2023-04-27T11:21:43;98142.97;;;16.80;50.17
11314;BME280;5712;48.858;9.206;2023-04-27T11:24:11;98153.34;;;16.92;51.25
11314;BME280;5712;48.858;9.206;2023-04-27T11:26:37;98148.22;;;17.08;50.55
11314;BME280;5712;48.858;9.206;2023-04-27T11:29:05;98154.38;;;17.18;50.98
11314;BME280;5712;48.858;9.206;2023-04-27T11:31:39;98126.53;;;17.21;49.24
11314;BME280;5712;48.858;9.206;2023-04-27T11:34:06;98116.66;;;17.40;47.98
11314;BME280;5712;48.858;9.206;2023-04-27T11:36:32;98084.66;;;17.21;45.50
11314;BME280;5712;48.858;9.206;2023-04-27T11:38:59;98116.69;;;17.21;47.88
11314;BME280;5712;48.858;9.206;2023-04-27T11:41:33;98115.56;;;17.24;47.53
11314;BME280;5712;48.858;9.206;2023-04-27T11:44:05;98146.19;;;17.29;50.08
11314;BME280;5712;48.858;9.206;2023-04-27T11:46:33;98156.56;;;17.32;50.95
11314;BME280;5712;48.858;9.206;2023-04-27T11:49:02;98169.78;;;17.43;52.05
11314;BME280;5712;48.858;9.206;2023-04-27T11:51:29;98105.34;;;17.46;47.65
11314;BME280;5712;48.858;9.206;2023-04-27T11:54:00;98099.03;;;17.47;46.65
11314;BME280;5712;48.858;9.206;2023-04-27T11:56:34;98062.75;;;17.62;43.30
11314;BME280;5712;48.858;9.206;2023-04-27T11:59:01;98059.09;;;17.63;43.30
11314;BME280;5712;48.858;9.206;2023-04-27T12:01:29;98060.63;;;17.48;43.04
11314;BME280;5712;48.858;9.206;2023-04-27T12:03:56;98070.09;;;17.60;44.00
11314;BME280;5712;48.858;9.206;2023-04-27T12:06:24;98064.22;;;17.57;43.90
11314;BME280;5712;48.858;9.206;2023-04-27T12:08:50;98119.59;;;17.64;49.06
11314;BME280;5712;48.858;9.206;2023-04-27T12:11:17;98053.31;;;17.68;44.11
11314;BME280;5712;48.858;9.206;2023-04-27T12:13:45;98054.75;;;17.62;44.17
11314;BME280;5712;48.858;9.206;2023-04-27T12:16:12;98062.69;;;17.54;44.70
11314;BME280;5712;48.858;9.206;2023-04-27T12:18:39;98099.56;;;17.68;46.60
11314;BME280;5712;48.858;9.206;2023-04-27T12:21:05;98034.97;;;17.55;42.89
11314;BME280;5712;48.858;9.206;2023-04-27T12:23:32;98052.38;;;17.59;43.60
11314;BME280;5712;48.858;9.206;2023-04-27T12:25:58;98094.22;;;17.68;46.46
11314;BME280;5712;48.858;9.206;2023-04-27T12:28:25;98093.19;;;17.79;46.67
11314;BME280;5712;48.858;9.206;2023-04-27T12:30:53;98098.63;;;17.87;47.76
11314;BME280;5712;48.858;9.206;2023-04-27T12:33:20;98081.50;;;17.97;46.39
11314;BME280;5712;48.858;9.206;2023-04-27T12:35:46;98121.25;;;18.10;49.36
11314;BME280;5712;48.858;9.206;2023-04-27T12:38:16;98091.66;;;18.11;47.30
11314;BME280;5712;48.858;9.206;2023-04-27T12:40:43;98078.38;;;18.19;45.68
11314;BME280;5712;48.858;9.206;2023-04-27T12:43:09;98033.81;;;18.10;42.63
11314;BME280;5712;48.858;9.206;2023-04-27T12:45:37;98029.22;;;18.20;41.68
11314;BME280;5712;48.858;9.206;2023-04-27T12:48:05;98030.88;;;18.21;41.77
11314;BME280;5712;48.858;9.206;2023-04-27T12:50:32;98068.72;;;18.26;44.42
11314;BME280;5712;48.858;9.206;2023-04-27T12:52:58;98096.94;;;18.38;47.59
11314;BME280;5712;48.858;9.206;2023-04-27T12:55:25;98065.22;;;18.43;45.13
11314;BME280;5712;48.858;9.206;2023-04-27T12:57:52;98054.81;;;18.40;43.88
11314;BME280;5712;48.858;9.206;2023-04-27T13:00:19;98109.53;;;18.63;48.61
11314;BME280;5712;48.858;9.206;2023-04-27T13:02:45;98099.22;;;18.76;47.67
11314;BME280;5712;48.858;9.206;2023-04-27T13:05:13;98058.91;;;18.78;44.56
11314;BME280;5712;48.858;9.206;2023-04-27T13:07:39;98065.41;;;18.75;45.44
11314;BME280;5712;48.858;9.206;2023-04-27T13:10:07;98070.16;;;18.81;46.23
11314;BME280;5712;48.858;9.206;2023-04-27T13:12:33;98075.81;;;18.78;47.24
11314;BME280;5712;48.858;9.206;2023-04-27T13:15:00;98102.38;;;18.72;48.75